Time;durP1;ratioP1;P1;durP2;ratioP2;P2;SDS_P1;SDS_P2;PMS_P1;PMS_P2;Temp;Humidity;BMP_temperature;BMP_pressure;BME280_temperature;BME280_humidity;BME280_pressure;Samples;Min_cycle;Max_cycle;Signal;HPM_P1;HPM_P2
2023/08/27 00:01:31;;;;;;;24.60;6.90;;;;;;;23.55;57.58;100766.41;107337;1256;97922;-68
2023/08/27 00:04:00;;;;;;;26.50;6.10;;;;;;;23.52;57.66;100768.64;107368;1257;97796;-67
2023/08/27 00:06:28;;;;;;;18.60;6.40;;;;;;;23.47;58.27;100768.63;107392;1257;114613;-67
2023/08/27 00:08:56;;;;;;;21.50;7.00;;;;;;;23.41;58.05;100764.87;107376;1257;109348;-67
2023/08/27 00:11:24;;;;;;;14.60;6.50;;;;;;;23.39;58.79;100763.61;107362;1257;108484;-68
2023/08/27 00:13:52;;;;;;;20.40;6.70;;;;;;;23.34;58.89;100759.06;107372;1257;97819;-68
2023/08/27 00:16:20;;;;;;;23.00;6.60;;;;;;;23.31;58.79;100756.16;107370;1257;98347;-68
2023/08/27 00:18:49;;;;;;;15.90;6.70;;;;;;;23.28;58.58;100753.09;107377;1256;111146;-69
2023/08/27 00:21:17;;;;;;;11.90;5.80;;;;;;;23.27;58.54;100749.27;107401;1257;109205;-67
2023/08/27 00:23:45;;;;;;;12.60;6.60;;;;;;;23.25;58.67;100750.92;107398;1257;108039;-67
2023/08/27 00:26:13;;;;;;;17.70;6.30;;;;;;;23.23;59.12;100756.55;107357;1257;97960;-70
2023/08/27 00:28:43;;;;;;;23.30;6.70;;;;;;;23.18;58.85;100760.02;107238;1260;97937;-69
2023/08/27 00:31:11;;;;;;;25.50;6.40;;;;;;;23.14;59.17;100755.98;107441;1257;111851;-67
2023/08/27 00:33:40;;;;;;;20.50;6.80;;;;;;;23.09;59.18;100755.16;107213;1260;108514;-69
2023/08/27 00:36:08;;;;;;;14.10;5.90;;;;;;;23.08;59.38;100753.61;107372;1257;110053;-67
2023/08/27 00:38:37;;;;;;;10.20;5.20;;;;;;;23.06;59.83;100750.84;107368;1257;97817;-68
2023/08/27 00:41:06;;;;;;;15.90;5.30;;;;;;;23.06;59.77;100752.90;107362;1254;97824;-73
2023/08/27 00:43:34;;;;;;;11.50;5.20;;;;;;;23.06;59.93;100757.59;107381;1257;112442;-69
2023/08/27 00:46:04;;;;;;;20.70;5.80;;;;;;;23.08;60.04;100757.40;107390;1257;109711;-66
2023/08/27 00:48:33;;;;;;;14.50;5.60;;;;;;;23.08;60.29;100759.73;107417;1256;108266;-69
2023/08/27 00:51:03;;;;;;;23.10;5.70;;;;;;;23.08;60.34;100764.63;107373;1257;97950;-69
2023/08/27 00:53:32;;;;;;;17.80;5.40;;;;;;;23.08;60.45;100766.31;107424;1257;97947;-68
2023/08/27 00:56:02;;;;;;;20.90;5.90;;;;;;;23.08;60.40;100767.42;107089;1257;110928;-67
2023/08/27 00:58:31;;;;;;;17.10;6.00;;;;;;;23.08;60.56;100764.92;107422;1256;108422;-67
2023/08/27 01:01:04;;;;;;;15.90;5.00;;;;;;;23.08;60.73;100765.23;107321;1257;108596;-68
2023/08/27 01:03:33;;;;;;;15.90;6.10;;;;;;;23.08;60.66;100767.29;107377;1256;97771;-68
2023/08/27 01:06:02;;;;;;;12.40;5.30;;;;;;;23.07;60.82;100767.33;107309;1256;98113;-68
2023/08/27 01:08:38;;;;;;;19.80;5.10;;;;;;;23.06;61.03;100764.59;107371;1257;110613;-68
2023/08/27 01:11:36;;;;;;;18.20;4.90;;;;;;;23.07;60.90;100763.20;107290;1257;109500;-68
2023/08/27 01:14:10;;;;;;;11.50;4.60;;;;;;;23.05;61.16;100762.79;107298;1254;107645;-68
2023/08/27 01:16:40;;;;;;;17.80;5.60;;;;;;;23.02;61.23;100761.66;107298;1257;98027;-67
2023/08/27 01:19:13;;;;;;;12.60;5.10;;;;;;;22.99;61.81;100764.40;107380;1257;97943;-67
2023/08/27 01:21:42;;;;;;;;;;;;;;;22.94;61.60;100769.55;107225;1257;112487;-68
2023/08/27 01:24:11;;;;;;;12.60;4.40;;;;;;;22.91;61.60;100772.05;107352;1253;109950;-69
2023/08/27 01:26:47;;;;;;;12.20;4.60;;;;;;;22.88;61.81;100775.99;107269;1257;108006;-67
2023/08/27 01:29:15;;;;;;;14.00;4.70;;;;;;;22.86;61.79;100774.06;107321;1254;97889;-67
2023/08/27 01:31:53;;;;;;;11.60;5.50;;;;;;;22.86;61.99;100773.47;107370;1256;97706;-69
2023/08/27 01:34:23;;;;;;;11.90;4.10;;;;;;;22.87;62.16;100767.86;107400;1256;110478;-67
2023/08/27 01:36:52;;;;;;;13.90;4.50;;;;;;;22.87;62.26;100764.30;107401;1254;109194;-67
2023/08/27 01:39:20;;;;;;;15.00;5.20;;;;;;;22.87;62.67;100764.00;107393;1256;107809;-67
2023/08/27 01:41:48;;;;;;;15.60;4.60;;;;;;;22.85;62.76;100763.02;107169;1257;97921;-68
2023/08/27 01:44:16;;;;;;;10.60;4.20;;;;;;;22.82;62.68;100760.25;107390;1256;98408;-68
2023/08/27 01:46:47;;;;;;;11.80;4.70;;;;;;;22.81;62.83;100757.38;107360;1256;111146;-67
2023/08/27 01:49:15;;;;;;;10.60;4.60;;;;;;;22.79;62.98;100751.52;107416;1254;109511;-68
2023/08/27 01:51:43;;;;;;;9.90;4.40;;;;;;;22.79;63.09;100752.61;107335;1257;107749;-68
2023/08/27 01:54:11;;;;;;;8.90;4.40;;;;;;;22.81;63.03;100750.25;107346;1257;97813;-68
2023/08/27 01:56:39;;;;;;;9.80;5.20;;;;;;;22.82;63.31;100747.50;107148;1256;97886;-67
2023/08/27 01:59:08;;;;;;;10.70;4.90;;;;;;;22.82;63.54;100748.44;107395;1259;111823;-68
2023/08/27 02:01:36;;;;;;;8.90;4.70;;;;;;;22.83;63.40;100752.14;107321;1257;109504;-67
2023/08/27 02:04:04;;;;;;;11.00;4.70;;;;;;;22.86;63.81;100757.05;107346;1257;107934;-69
2023/08/27 02:06:33;;;;;;;13.40;4.50;;;;;;;22.87;63.66;100758.02;107049;1262;97770;-69
2023/08/27 02:09:01;;;;;;;19.00;5.10;;;;;;;22.85;63.49;100756.27;107257;1255;97957;-68
2023/08/27 02:11:30;;;;;;;18.90;5.20;;;;;;;22.82;63.18;100754.59;107341;1256;111606;-68
2023/08/27 02:13:58;;;;;;;15.70;4.60;;;;;;;22.80;63.35;100751.94;107338;1257;109509;-69
2023/08/27 02:16:27;;;;;;;16.30;4.50;;;;;;;22.78;63.40;100745.50;107330;1257;107308;-67
2023/08/27 02:18:56;;;;;;;18.10;4.60;;;;;;;22.77;63.57;100742.42;107393;1258;97834;-68
2023/08/27 02:21:24;;;;;;;12.30;4.10;;;;;;;22.75;63.61;100744.41;107283;1255;97848;-67
2023/08/27 02:23:52;;;;;;;14.70;4.90;;;;;;;22.75;63.78;100741.79;107333;1257;111819;-68
2023/08/27 02:26:21;;;;;;;12.60;4.60;;;;;;;22.73;63.85;100741.98;107406;1257;108816;-68
2023/08/27 02:28:49;;;;;;;7.60;3.70;;;;;;;22.72;63.83;100741.17;107308;1256;107742;-67
2023/08/27 02:31:18;;;;;;;10.50;3.90;;;;;;;22.70;64.01;100741.30;107292;1258;97921;-69
2023/08/27 02:33:47;;;;;;;19.90;4.00;;;;;;;22.67;64.07;100736.48;107330;1257;97717;-68
2023/08/27 02:36:16;;;;;;;10.40;4.30;;;;;;;22.64;63.86;100734.52;107337;1256;112929;-69
2023/08/27 02:38:46;;;;;;;7.00;3.60;;;;;;;22.60;64.04;100728.30;107110;1258;109437;-66
2023/08/27 02:41:15;;;;;;;16.70;4.20;;;;;;;22.58;64.34;100732.08;107333;1258;107714;-71
2023/08/27 02:43:43;;;;;;;10.10;4.30;;;;;;;22.56;64.22;100727.83;107272;1256;97723;-69
2023/08/27 02:46:12;;;;;;;17.40;4.20;;;;;;;22.55;64.34;100726.48;107336;1259;97973;-68
2023/08/27 02:48:40;;;;;;;10.90;4.20;;;;;;;22.53;64.33;100730.38;107325;1255;111929;-71
2023/08/27 02:51:09;;;;;;;19.50;4.10;;;;;;;22.51;64.47;100730.85;107369;1257;109325;-68
2023/08/27 02:53:37;;;;;;;9.00;4.30;;;;;;;22.48;64.56;100732.21;107312;1257;108584;-69
2023/08/27 02:56:05;;;;;;;11.40;3.90;;;;;;;22.42;64.70;100731.25;107315;1256;97934;-67
2023/08/27 02:58:34;;;;;;;9.30;3.90;;;;;;;22.37;64.50;100728.41;107240;1256;97809;-68
2023/08/27 03:01:02;;;;;;;9.10;4.30;;;;;;;22.33;64.77;100730.48;107395;1257;111699;-69
2023/08/27 03:03:31;;;;;;;12.50;4.30;;;;;;;22.30;64.94;100731.14;107296;1257;107927;-67
2023/08/27 03:05:59;;;;;;;8.30;3.70;;;;;;;22.27;65.14;100728.05;107259;1256;107415;-67
2023/08/27 03:08:27;;;;;;;12.10;3.90;;;;;;;22.24;64.97;100724.66;107368;1256;97938;-68
2023/08/27 03:10:55;;;;;;;13.50;3.80;;;;;;;22.23;65.12;100729.09;107273;1254;97729;-66
2023/08/27 03:13:24;;;;;;;10.20;4.50;;;;;;;22.21;65.42;100726.98;107211;1260;111871;-69
2023/08/27 03:15:52;;;;;;;11.80;4.60;;;;;;;22.18;65.93;100728.67;107351;1257;109627;-68
2023/08/27 03:18:21;;;;;;;8.80;3.60;;;;;;;22.15;66.53;100734.45;107368;1257;106550;-69
2023/08/27 03:20:49;;;;;;;14.30;3.70;;;;;;;22.11;66.55;100738.50;107277;1255;97711;-69
2023/08/27 03:23:18;;;;;;;13.70;4.30;;;;;;;22.08;66.52;100739.14;107342;1255;97740;-68
2023/08/27 03:25:49;;;;;;;13.50;4.10;;;;;;;22.06;66.26;100743.06;107300;1254;112360;-70
2023/08/27 03:28:17;;;;;;;6.40;4.10;;;;;;;22.05;66.38;100750.15;107420;1254;110165;-69
2023/08/27 03:30:47;;;;;;;9.10;3.50;;;;;;;22.02;66.35;100750.60;107396;1254;108122;-68
2023/08/27 03:33:16;;;;;;;13.60;4.30;;;;;;;21.99;66.68;100757.08;107346;1254;97876;-68
2023/08/27 03:35:53;;;;;;;15.40;4.40;;;;;;;21.95;66.66;100755.73;107374;1256;97719;-68
2023/08/27 03:38:22;;;;;;;7.90;3.90;;;;;;;21.92;66.64;100754.67;107346;1254;111312;-69
2023/08/27 03:40:52;;;;;;;13.90;3.80;;;;;;;21.92;66.82;100755.65;107399;1253;109401;-67
2023/08/27 03:43:21;;;;;;;8.30;4.00;;;;;;;21.92;66.85;100765.63;107107;1256;106887;-69
2023/08/27 03:45:50;;;;;;;14.00;4.00;;;;;;;21.92;66.94;100761.80;107329;1254;98498;-69
2023/08/27 03:48:19;;;;;;;5.90;3.20;;;;;;;21.93;66.94;100760.19;107385;1254;97729;-68
2023/08/27 03:50:48;;;;;;;11.50;4.00;;;;;;;21.93;67.23;100762.93;107447;1254;111463;-67
2023/08/27 03:53:16;;;;;;;8.20;4.40;;;;;;;21.92;67.34;100766.17;107302;1254;110226;-68
2023/08/27 03:55:44;;;;;;;10.80;4.20;;;;;;;21.91;67.43;100763.98;107335;1257;108636;-68
2023/08/27 03:58:12;;;;;;;10.80;3.90;;;;;;;21.91;67.61;100764.16;107309;1256;97835;-67
2023/08/27 04:00:41;;;;;;;10.40;4.30;;;;;;;21.92;67.72;100764.74;107374;1256;97979;-68
2023/08/27 04:03:09;;;;;;;10.10;3.70;;;;;;;21.94;67.87;100768.30;107368;1257;111762;-67
2023/08/27 04:05:38;;;;;;;11.30;3.60;;;;;;;21.97;68.03;100766.56;107186;1255;108990;-70
2023/08/27 04:08:07;;;;;;;9.30;4.10;;;;;;;21.99;68.02;100766.09;107356;1256;106259;-68
2023/08/27 04:10:36;;;;;;;10.90;4.30;;;;;;;22.02;68.11;100762.77;107278;1257;98013;-68
2023/08/27 04:13:04;;;;;;;15.50;4.60;;;;;;;22.05;68.16;100760.47;107324;1257;97736;-67
2023/08/27 04:15:33;;;;;;;14.50;4.70;;;;;;;22.09;68.19;100761.61;107232;1257;113148;-69
2023/08/27 04:18:03;;;;;;;15.20;4.20;;;;;;;22.13;68.28;100759.88;107332;1255;109979;-67
2023/08/27 04:20:32;;;;;;;11.50;4.20;;;;;;;22.16;68.22;100762.48;107212;1257;107599;-69
2023/08/27 04:23:00;;;;;;;12.80;4.00;;;;;;;22.22;68.32;100760.48;107266;1257;97893;-69
2023/08/27 04:25:29;;;;;;;10.90;4.10;;;;;;;22.28;68.59;100759.80;107145;1257;97852;-69
2023/08/27 04:27:57;;;;;;;6.70;4.10;;;;;;;22.33;68.33;100766.11;107286;1256;112958;-68
2023/08/27 04:30:29;;;;;;;8.00;3.80;;;;;;;22.38;68.17;100765.35;107130;1257;109989;-68
2023/08/27 04:32:57;;;;;;;15.20;5.00;;;;;;;22.42;68.23;100767.73;107290;1257;108651;-68
2023/08/27 04:35:26;;;;;;;8.50;4.20;;;;;;;22.47;68.40;100765.83;107311;1256;98473;-68
2023/08/27 04:37:55;;;;;;;11.80;4.50;;;;;;;22.50;68.38;100765.26;107161;1255;97720;-68
2023/08/27 04:40:25;;;;;;;11.30;4.00;;;;;;;22.56;68.54;100762.83;107340;1259;112428;-68
2023/08/27 04:42:53;;;;;;;7.20;3.90;;;;;;;22.63;68.31;100765.67;107294;1256;109868;-67
2023/08/27 04:45:21;;;;;;;12.10;4.00;;;;;;;22.70;68.42;100766.54;107116;1262;108335;-69
2023/08/27 04:47:50;;;;;;;9.90;4.20;;;;;;;22.77;68.41;100769.59;107305;1259;97923;-68
2023/08/27 04:50:18;;;;;;;28.80;4.50;;;;;;;22.85;68.16;100769.42;107255;1260;98026;-68
2023/08/27 04:52:47;;;;;;;15.00;4.40;;;;;;;22.92;68.10;100764.58;107366;1257;111253;-70
2023/08/27 04:55:15;;;;;;;10.00;4.50;;;;;;;23.00;68.01;100762.95;107165;1256;108896;-70
2023/08/27 04:57:43;;;;;;;7.10;4.00;;;;;;;23.06;67.91;100761.90;107179;1257;107459;-69
2023/08/27 05:00:16;;;;;;;15.30;4.40;;;;;;;23.11;67.66;100765.83;107210;1257;97896;-69
2023/08/27 05:02:46;;;;;;;9.70;3.50;;;;;;;23.17;67.28;100766.69;107359;1258;98228;-67
2023/08/27 05:05:15;;;;;;;7.10;4.20;;;;;;;23.21;67.46;100762.89;107286;1257;111201;-67
2023/08/27 05:07:44;;;;;;;14.30;4.30;;;;;;;23.24;67.20;100760.09;107181;1257;109822;-68
2023/08/27 05:10:13;;;;;;;10.50;4.40;;;;;;;23.28;66.93;100762.71;107223;1260;107964;-66
2023/08/27 05:12:41;;;;;;;17.40;4.60;;;;;;;23.32;67.02;100759.61;107056;1259;98414;-69
2023/08/27 05:15:10;;;;;;;16.90;4.60;;;;;;;23.37;66.73;100760.59;107358;1257;97883;-68
2023/08/27 05:17:39;;;;;;;16.30;4.90;;;;;;;23.42;66.77;100759.08;107398;1254;110734;-68
2023/08/27 05:20:09;;;;;;;20.30;5.10;;;;;;;23.50;66.71;100756.79;107336;1257;109350;-69
2023/08/27 05:22:37;;;;;;;9.70;4.90;;;;;;;23.56;66.27;100761.93;107376;1259;107446;-69
2023/08/27 05:25:06;;;;;;;14.70;5.10;;;;;;;23.60;66.13;100764.36;107202;1256;97999;-70
2023/08/27 05:27:34;;;;;;;19.70;5.30;;;;;;;23.66;65.84;100767.48;107085;1254;98392;-68
2023/08/27 05:30:04;;;;;;;16.30;5.10;;;;;;;23.70;65.44;100767.70;107318;1257;111768;-69
2023/08/27 05:32:32;;;;;;;15.40;5.10;;;;;;;23.77;65.32;100771.70;107373;1254;109195;-70
2023/08/27 05:35:00;;;;;;;27.80;5.90;;;;;;;23.82;65.32;100768.14;107300;1254;108232;-68
2023/08/27 05:37:29;;;;;;;13.90;4.70;;;;;;;23.88;65.26;100768.22;107225;1256;98340;-67
2023/08/27 05:39:58;;;;;;;26.70;7.30;;;;;;;23.92;64.87;100771.73;107434;1256;97843;-70
2023/08/27 05:42:27;;;;;;;15.60;5.90;;;;;;;23.95;64.68;100769.75;107345;1257;111772;-68
2023/08/27 05:44:55;;;;;;;20.20;6.20;;;;;;;24.00;64.42;100774.27;107329;1257;109042;-69
2023/08/27 05:47:24;;;;;;;18.70;6.40;;;;;;;24.04;64.44;100772.72;107174;1256;106722;-68
2023/08/27 05:49:53;;;;;;;16.20;5.40;;;;;;;24.09;64.28;100767.30;107331;1256;97870;-68
2023/08/27 05:52:22;;;;;;;16.80;5.50;;;;;;;24.12;64.18;100769.17;107179;1256;97872;-68
2023/08/27 05:54:50;;;;;;;16.80;4.50;;;;;;;24.15;63.95;100769.27;107310;1257;111392;-69
2023/08/27 05:57:19;;;;;;;14.70;4.60;;;;;;;24.19;63.74;100769.31;107347;1260;108763;-68
2023/08/27 05:59:47;;;;;;;23.40;4.60;;;;;;;24.24;63.68;100769.30;107360;1256;108003;-68
2023/08/27 06:02:17;;;;;;;14.60;5.20;;;;;;;24.28;63.73;100771.20;107310;1257;97831;-68
2023/08/27 06:04:46;;;;;;;13.60;4.60;;;;;;;24.33;63.60;100773.52;107421;1257;98017;-69
2023/08/27 06:07:14;;;;;;;9.70;4.40;;;;;;;24.38;63.54;100771.40;107372;1257;111033;-66
2023/08/27 06:09:42;;;;;;;21.00;5.10;;;;;;;24.43;63.42;100769.34;107383;1257;109921;-70
2023/08/27 06:12:11;;;;;;;15.80;5.30;;;;;;;24.48;63.35;100764.01;107337;1257;107974;-69
2023/08/27 06:14:39;;;;;;;8.90;4.20;;;;;;;24.54;63.13;100762.07;107330;1254;97859;-70
2023/08/27 06:17:08;;;;;;;9.90;3.60;;;;;;;24.61;62.92;100763.02;107397;1257;98379;-69
2023/08/27 06:19:36;;;;;;;17.40;4.60;;;;;;;24.69;62.86;100759.98;107253;1257;111360;-69
2023/08/27 06:22:16;;;;;;;7.40;4.10;;;;;;;24.77;62.62;100761.73;107382;1254;109316;-67
2023/08/27 06:24:44;;;;;;;17.70;4.30;;;;;;;24.86;62.72;100760.27;107287;1258;108581;-69
2023/08/27 06:27:14;;;;;;;11.40;4.00;;;;;;;24.95;62.41;100760.59;107388;1259;97880;-69
2023/08/27 06:29:44;;;;;;;9.30;3.60;;;;;;;25.04;62.09;100756.44;107353;1256;97723;-68
2023/08/27 06:32:15;;;;;;;19.40;3.60;;;;;;;25.13;61.73;100752.20;107317;1258;111304;-69
2023/08/27 06:34:46;;;;;;;12.90;4.00;;;;;;;25.22;61.23;100750.09;107276;1257;109777;-67
2023/08/27 06:37:14;;;;;;;13.20;4.20;;;;;;;25.31;60.89;100748.33;107380;1257;108072;-69
2023/08/27 06:39:43;;;;;;;10.60;3.60;;;;;;;25.40;60.72;100750.73;107104;1256;97959;-69
2023/08/27 06:42:12;;;;;;;12.20;4.20;;;;;;;25.47;60.25;100754.90;107239;1257;98434;-69
2023/08/27 06:44:41;;;;;;;8.10;3.70;;;;;;;25.55;59.88;100757.57;107360;1258;112034;-70
2023/08/27 06:47:11;;;;;;;9.10;4.00;;;;;;;25.65;59.63;100756.11;107326;1254;108772;-69
2023/08/27 06:49:40;;;;;;;9.20;3.80;;;;;;;25.73;59.17;100757.77;107302;1257;108415;-70
2023/08/27 06:52:09;;;;;;;8.60;4.00;;;;;;;25.80;58.72;100751.69;107416;1256;97724;-68
2023/08/27 06:54:37;;;;;;;10.10;4.20;;;;;;;25.89;58.48;100750.73;107416;1254;97751;-69
2023/08/27 06:57:06;;;;;;;6.60;4.10;;;;;;;25.98;58.19;100751.38;107381;1257;111958;-67
2023/08/27 06:59:36;;;;;;;15.30;4.50;;;;;;;26.07;57.38;100751.92;107419;1254;109904;-70
2023/08/27 07:02:04;;;;;;;9.20;3.80;;;;;;;26.16;56.57;100751.76;107354;1256;108663;-70
2023/08/27 07:04:33;;;;;;;10.90;4.10;;;;;;;26.23;56.30;100754.96;107409;1257;97927;-68
2023/08/27 07:07:02;;;;;;;10.20;3.30;;;;;;;26.33;56.30;100754.35;107404;1257;97824;-68
2023/08/27 07:09:31;;;;;;;13.10;4.40;;;;;;;26.42;55.77;100751.13;107404;1254;111486;-70
2023/08/27 07:12:00;;;;;;;7.90;3.70;;;;;;;26.50;55.33;100757.96;107298;1257;109642;-69
2023/08/27 07:14:28;;;;;;;8.50;3.70;;;;;;;26.58;55.49;100758.52;107358;1257;107105;-69
2023/08/27 07:16:56;;;;;;;9.70;3.60;;;;;;;26.66;54.20;100755.95;107373;1257;97947;-69
2023/08/27 07:19:24;;;;;;;10.00;4.40;;;;;;;26.78;54.45;100758.61;107385;1254;98354;-67
2023/08/27 07:21:53;;;;;;;11.80;4.10;;;;;;;26.87;54.22;100760.02;107276;1254;111822;-69
2023/08/27 07:24:22;;;;;;;11.70;3.50;;;;;;;26.98;54.06;100761.11;107253;1257;110981;-70
2023/08/27 07:26:50;;;;;;;10.80;4.00;;;;;;;27.09;53.52;100760.33;107381;1257;109149;-69
2023/08/27 07:29:19;;;;;;;12.30;5.60;;;;;;;27.18;53.29;100756.24;107348;1259;98293;-68
2023/08/27 07:31:48;;;;;;;15.00;5.30;;;;;;;27.25;52.79;100750.02;107285;1260;97713;-68
2023/08/27 07:34:17;;;;;;;10.20;3.80;;;;;;;27.33;52.89;100744.64;107335;1254;111784;-69
2023/08/27 07:36:45;;;;;;;10.30;3.50;;;;;;;27.42;52.62;100744.02;107285;1254;109641;-69
2023/08/27 07:39:15;;;;;;;14.80;3.70;;;;;;;27.51;52.88;100741.61;107404;1254;108432;-69
2023/08/27 07:41:44;;;;;;;8.30;3.50;;;;;;;27.62;52.82;100736.88;107383;1256;97787;-68
2023/08/27 07:44:13;;;;;;;10.80;5.90;;;;;;;27.73;52.58;100734.85;107422;1256;97714;-69
2023/08/27 07:46:42;;;;;;;17.40;5.20;;;;;;;27.86;52.32;100729.06;107274;1256;111274;-69
2023/08/27 07:49:11;;;;;;;9.20;4.00;;;;;;;28.00;52.19;100723.69;107255;1260;109117;-68
2023/08/27 07:51:39;;;;;;;10.10;3.70;;;;;;;28.12;51.72;100720.28;107381;1254;108057;-68
2023/08/27 07:54:08;;;;;;;14.40;3.90;;;;;;;28.23;51.47;100721.05;107399;1254;97713;-70
2023/08/27 07:56:36;;;;;;;7.10;3.50;;;;;;;28.35;51.02;100726.40;107405;1257;98360;-69
2023/08/27 07:59:05;;;;;;;14.30;3.70;;;;;;;28.48;51.18;100726.47;107219;1260;111789;-69
2023/08/27 08:01:33;;;;;;;9.20;3.50;;;;;;;28.62;50.48;100720.70;107377;1257;110257;-68
2023/08/27 08:04:03;;;;;;;13.10;6.70;;;;;;;28.74;49.95;100722.60;107354;1256;108593;-68
2023/08/27 08:06:31;;;;;;;8.40;3.40;;;;;;;28.85;49.43;100722.60;107408;1257;97821;-69
2023/08/27 08:08:59;;;;;;;8.10;3.90;;;;;;;28.95;49.16;100714.56;107426;1254;98462;-69
2023/08/27 08:11:27;;;;;;;10.90;3.90;;;;;;;29.05;48.99;100709.52;107386;1257;111666;-69
2023/08/27 08:13:56;;;;;;;8.40;3.50;;;;;;;29.16;48.33;100703.48;107377;1254;109039;-67
2023/08/27 08:16:24;;;;;;;6.10;3.30;;;;;;;29.26;47.46;100703.58;107334;1258;108199;-72
2023/08/27 08:18:52;;;;;;;13.20;5.30;;;;;;;29.38;47.54;100699.99;107364;1254;97837;-67
2023/08/27 08:21:21;;;;;;;12.70;3.90;;;;;;;29.53;47.36;100705.14;107416;1254;98398;-68
2023/08/27 08:23:49;;;;;;;12.80;4.30;;;;;;;29.70;47.11;100704.77;107443;1258;112948;-68
2023/08/27 08:26:17;;;;;;;10.10;3.70;;;;;;;29.85;46.27;100703.14;107378;1257;109730;-69
2023/08/27 08:28:45;;;;;;;16.40;3.80;;;;;;;30.04;46.17;100704.85;107392;1255;107400;-70
2023/08/27 08:31:13;;;;;;;8.30;3.50;;;;;;;30.26;45.77;100700.63;107366;1254;97850;-68
2023/08/27 08:33:45;;;;;;;11.50;3.60;;;;;;;30.48;45.09;100697.25;107418;1254;97749;-68
2023/08/27 08:36:13;;;;;;;11.90;3.70;;;;;;;30.68;44.86;100692.38;107387;1254;111645;-69
2023/08/27 08:38:42;;;;;;;13.50;3.40;;;;;;;30.87;44.35;100690.54;107430;1254;108720;-69
2023/08/27 08:41:13;;;;;;;8.20;3.40;;;;;;;31.03;44.25;100681.11;107372;1256;108403;-68
2023/08/27 08:43:47;;;;;;;9.60;3.50;;;;;;;31.21;43.44;100674.04;107330;1257;97867;-68
2023/08/27 08:46:18;;;;;;;14.70;3.40;;;;;;;31.38;42.34;100665.98;107415;1254;99325;-68
2023/08/27 08:48:54;;;;;;;7.30;3.10;;;;;;;31.55;42.08;100665.80;107362;1254;112212;-67
2023/08/27 08:51:26;;;;;;;9.60;3.30;;;;;;;31.73;41.75;100659.61;107410;1254;109899;-69
2023/08/27 08:54:03;;;;;;;9.20;4.00;;;;;;;31.92;40.71;100657.63;107412;1254;108687;-69
2023/08/27 08:56:38;;;;;;;13.00;3.80;;;;;;;32.11;40.39;100657.45;107351;1254;97845;-69
2023/08/27 08:59:07;;;;;;;15.10;3.50;;;;;;;32.35;39.45;100662.05;107414;1258;98382;-69
2023/08/27 09:01:35;;;;;;;13.40;3.40;;;;;;;32.52;38.22;100657.73;107336;1254;112144;-68
2023/08/27 09:04:06;;;;;;;10.70;3.70;;;;;;;32.72;38.16;100658.17;107432;1254;110040;-70
2023/08/27 09:06:36;;;;;;;13.00;3.00;;;;;;;32.97;38.01;100654.00;107391;1257;108784;-69
2023/08/27 09:09:04;;;;;;;10.80;3.90;;;;;;;33.20;35.77;100655.89;107391;1259;97837;-69
2023/08/27 09:11:36;;;;;;;8.80;2.90;;;;;;;33.39;35.98;100648.88;107405;1257;97857;-68
2023/08/27 09:14:04;;;;;;;10.10;3.20;;;;;;;33.62;34.58;100654.23;107409;1255;112279;-71
2023/08/27 09:16:33;;;;;;;8.20;3.00;;;;;;;33.80;34.45;100650.20;107425;1257;108914;-72
2023/08/27 09:19:01;;;;;;;14.80;3.30;;;;;;;34.06;34.17;100641.98;107294;1254;107819;-70
2023/08/27 09:21:30;;;;;;;15.60;3.40;;;;;;;34.36;32.92;100649.21;107379;1254;97858;-69
2023/08/27 09:23:58;;;;;;;11.80;3.30;;;;;;;34.64;32.34;100644.86;107419;1254;98034;-67
2023/08/27 09:26:26;;;;;;;10.90;2.80;;;;;;;34.92;31.85;100647.57;107421;1257;112154;-71
2023/08/27 09:28:56;;;;;;;7.10;3.10;;;;;;;35.25;31.33;100642.47;107366;1254;109661;-67
2023/08/27 09:31:38;;;;;;;12.60;3.00;;;;;;;35.62;31.25;100636.78;107400;1257;107889;-69
2023/08/27 09:34:07;;;;;;;;;;;;;;;36.21;30.32;100639.98;107392;1254;97857;-65
2023/08/27 09:36:37;;;;;;;8.50;2.80;;;;;;;36.81;29.09;100633.16;107402;1257;97857;-69
2023/08/27 09:39:11;;;;;;;9.60;3.40;;;;;;;37.37;29.04;100627.45;107421;1254;110888;-68
2023/08/27 09:41:44;;;;;;;11.60;2.50;;;;;;;38.02;27.44;100629.66;107404;1254;109214;-69
2023/08/27 09:44:14;;;;;;;10.30;3.00;;;;;;;38.45;26.53;100628.09;107390;1254;108778;-66
2023/08/27 09:46:42;;;;;;;13.30;3.30;;;;;;;38.74;26.87;100625.61;107401;1257;98578;-69
2023/08/27 09:49:11;;;;;;;19.00;3.30;;;;;;;39.37;26.79;100624.98;107331;1254;98373;-69
2023/08/27 09:51:39;;;;;;;11.30;2.80;;;;;;;39.86;25.20;100620.92;107400;1254;112235;-69
2023/08/27 09:54:15;;;;;;;9.80;2.90;;;;;;;40.29;25.99;100620.95;107363;1259;110290;-67
2023/08/27 09:56:47;;;;;;;14.50;2.70;;;;;;;40.85;25.42;100621.23;107047;1254;521187;-68
2023/08/27 09:59:17;;;;;;;10.50;2.80;;;;;;;41.42;24.43;100612.12;107407;1257;97864;-69
2023/08/27 10:01:49;;;;;;;13.20;3.10;;;;;;;41.82;23.79;100607.92;107436;1256;97720;-68
2023/08/27 10:04:19;;;;;;;9.20;2.70;;;;;;;42.19;22.95;100603.35;107386;1259;112140;-68
2023/08/27 10:06:48;;;;;;;9.10;2.30;;;;;;;42.37;22.52;100599.56;107433;1257;108289;-67
2023/08/27 10:09:17;;;;;;;19.60;3.20;;;;;;;42.52;21.90;100601.04;107372;1257;107376;-69
2023/08/27 10:11:46;;;;;;;7.90;2.60;;;;;;;42.45;21.88;100593.17;107357;1257;97815;-68
2023/08/27 10:14:18;;;;;;;16.50;3.00;;;;;;;42.64;21.31;100589.82;107423;1257;98288;-68
2023/08/27 10:16:47;;;;;;;7.00;2.40;;;;;;;42.88;21.02;100588.33;107398;1256;111785;-66
2023/08/27 10:19:16;;;;;;;13.60;3.00;;;;;;;43.28;20.89;100581.82;107395;1257;109803;-68
2023/08/27 10:21:44;;;;;;;9.10;2.80;;;;;;;43.63;20.11;100573.01;107387;1260;108887;-67
2023/08/27 10:24:12;;;;;;;13.60;2.30;;;;;;;43.94;19.90;100573.17;107366;1257;97807;-68
2023/08/27 10:26:43;;;;;;;9.90;2.30;;;;;;;44.33;18.78;100574.42;107366;1257;97729;-68
2023/08/27 10:29:12;;;;;;;10.00;2.90;;;;;;;44.58;18.96;100569.05;107426;1257;112348;-67
2023/08/27 10:31:40;;;;;;;11.20;1.90;;;;;;;44.90;18.76;100563.54;107326;1254;109240;-68
2023/08/27 10:34:09;;;;;;;10.90;2.70;;;;;;;45.24;17.76;100563.09;107394;1256;107823;-66
2023/08/27 10:36:41;;;;;;;3.70;2.50;;;;;;;45.29;17.64;100555.15;107382;1254;97873;-67
2023/08/27 10:39:11;;;;;;;9.20;2.30;;;;;;;45.56;17.46;100552.76;107387;1259;97955;-68
2023/08/27 10:41:40;;;;;;;9.30;2.30;;;;;;;45.57;17.46;100543.67;107393;1257;112201;-68
2023/08/27 10:44:18;;;;;;;9.00;1.90;;;;;;;45.78;17.99;100538.08;107384;1256;108457;-67
2023/08/27 10:47:14;;;;;;;12.30;2.30;;;;;;;46.20;17.28;100539.61;107388;1258;106598;-68
2023/08/27 10:49:47;;;;;;;11.40;2.50;;;;;;;46.55;16.97;100536.73;107322;1254;97941;-68
2023/08/27 10:52:20;;;;;;;9.20;2.60;;;;;;;46.77;16.22;100534.13;107396;1254;98376;-68
2023/08/27 10:54:59;;;;;;;13.10;2.30;;;;;;;46.91;16.34;100526.62;107376;1257;112448;-67
2023/08/27 10:57:27;;;;;;;7.60;2.10;;;;;;;47.15;15.77;100524.65;107381;1259;109213;-67
2023/08/27 11:00:10;;;;;;;12.50;2.10;;;;;;;47.34;16.31;100511.39;107377;1257;108219;-68
2023/08/27 11:03:13;;;;;;;8.40;1.80;;;;;;;47.39;15.73;100507.84;107387;1254;97861;-68
2023/08/27 11:05:41;;;;;;;12.50;2.10;;;;;;;47.40;15.61;100511.66;107306;1257;98401;-68
2023/08/27 11:08:35;;;;;;;6.80;1.80;;;;;;;47.56;14.97;100511.38;107394;1254;112067;-67
2023/08/27 11:11:11;;;;;;;6.60;2.00;;;;;;;47.59;14.60;100503.26;107416;1254;109089;-67
2023/08/27 11:13:46;;;;;;;7.60;1.80;;;;;;;47.71;15.10;100499.27;107372;1256;107863;-67
2023/08/27 11:16:16;;;;;;;8.70;2.10;;;;;;;48.00;14.46;100495.44;107397;1254;97840;-67
2023/08/27 11:18:49;;;;;;;7.10;2.00;;;;;;;48.16;14.78;100488.23;107415;1257;98158;-69